Time;durP1;ratioP1;P1;durP2;ratioP2;P2;SDS_P1;SDS_P2;PMS_P1;PMS_P2;Temp;Humidity;BMP_temperature;BMP_pressure;BME280_temperature;BME280_humidity;BME280_pressure;Samples;Min_cycle;Max_cycle;Signal;HPM_P1;HPM_P2
2023/10/18 00:00:34;;;;;;;18.90;12.30;;;;;;;3.04;100.00;101490.25;105947;1252;64373;-76
2023/10/18 00:03:06;;;;;;;19.30;12.20;;;;;;;3.01;100.00;101487.02;105776;1254;72727;-76
2023/10/18 00:05:33;;;;;;;18.20;12.30;;;;;;;3.01;100.00;101486.16;105875;1256;61261;-77
2023/10/18 00:08:03;;;;;;;19.30;13.70;;;;;;;3.01;100.00;101484.26;105727;1254;60482;-76
2023/10/18 00:10:33;;;;;;;18.70;14.20;;;;;;;3.02;100.00;101483.88;105896;1256;74288;-75
2023/10/18 00:12:59;;;;;;;21.80;13.50;;;;;;;3.03;100.00;101481.28;105815;1256;63754;-73
2023/10/18 00:15:26;;;;;;;25.70;15.20;;;;;;;3.04;100.00;101482.11;106219;1254;71590;-76
2023/10/18 00:17:53;;;;;;;19.50;12.90;;;;;;;3.04;100.00;101485.05;105907;1254;60421;-75
2023/10/18 00:20:23;;;;;;;20.00;13.50;;;;;;;3.04;100.00;101480.22;105894;1256;60334;-76
2023/10/18 00:22:51;;;;;;;24.00;15.10;;;;;;;3.03;100.00;101483.34;105820;1256;73893;-76
2023/10/18 00:25:20;;;;;;;20.30;13.20;;;;;;;3.02;100.00;101482.85;105803;1254;62592;-77
2023/10/18 00:27:47;;;;;;;23.30;14.50;;;;;;;3.02;100.00;101481.11;105887;1254;72615;-76
2023/10/18 00:30:16;;;;;;;21.30;13.50;;;;;;;3.01;100.00;101478.89;105733;1255;61026;-76
2023/10/18 00:32:44;;;;;;;20.20;13.70;;;;;;;2.98;100.00;101477.73;105801;1254;60530;-76
2023/10/18 00:35:31;;;;;;;21.00;14.40;;;;;;;2.95;100.00;101477.92;105789;1254;73556;-77
2023/10/18 00:37:58;;;;;;;27.00;15.70;;;;;;;2.92;100.00;101473.48;105885;1258;63782;-77
2023/10/18 00:43:08;;;;;;;22.40;15.10;;;;;;;2.85;100.00;101474.63;105767;1256;61128;-77
2023/10/18 00:45:40;;;;;;;21.10;13.40;;;;;;;2.82;100.00;101475.19;105804;1254;60402;-77
2023/10/18 00:48:08;;;;;;;20.80;13.50;;;;;;;2.79;100.00;101476.11;105823;1256;73893;-76
2023/10/18 00:50:41;;;;;;;20.20;13.00;;;;;;;2.75;100.00;101477.01;105733;1254;62389;-77
2023/10/18 00:53:10;;;;;;;28.40;13.40;;;;;;;2.71;100.00;101477.92;105733;1253;72690;-77
2023/10/18 00:55:37;;;;;;;19.80;12.00;;;;;;;2.68;100.00;101482.28;105785;1257;61291;-76
2023/10/18 00:58:08;;;;;;;18.80;12.00;;;;;;;2.64;100.00;101481.98;106074;1254;60505;-77
2023/10/18 01:00:39;;;;;;;17.10;13.90;;;;;;;2.61;100.00;101484.80;105847;1253;73861;-77
2023/10/18 01:03:09;;;;;;;23.50;14.20;;;;;;;2.57;100.00;101490.71;105919;1256;63941;-76
2023/10/18 01:05:36;;;;;;;24.20;13.30;;;;;;;2.55;100.00;101487.81;105826;1254;72727;-77
2023/10/18 01:08:07;;;;;;;19.10;13.20;;;;;;;2.52;100.00;101487.34;105847;1256;61169;-76
2023/10/18 01:10:37;;;;;;;20.90;12.40;;;;;;;2.47;100.00;101488.59;105842;1254;60556;-76
2023/10/18 01:13:04;;;;;;;19.60;12.00;;;;;;;2.43;100.00;101486.05;105717;1254;72887;-76
2023/10/18 01:15:32;;;;;;;22.90;12.70;;;;;;;2.39;100.00;101492.50;105678;1256;63679;-77
2023/10/18 01:17:59;;;;;;;23.90;14.30;;;;;;;2.36;100.00;101491.84;105915;1257;72420;-77
2023/10/18 01:22:58;;;;;;;18.20;11.50;;;;;;;2.33;100.00;101492.05;105914;1256;61010;-79
2023/10/18 01:25:27;;;;;;;18.10;12.70;;;;;;;2.30;100.00;101490.88;105778;1256;73786;-76
2023/10/18 01:27:54;;;;;;;20.50;12.80;;;;;;;2.28;100.00;101490.21;105810;1256;64040;-75
2023/10/18 01:30:21;;;;;;;18.40;11.50;;;;;;;2.26;100.00;101489.36;105716;1256;72666;-76
2023/10/18 01:32:48;;;;;;;21.00;13.00;;;;;;;2.24;100.00;101492.84;105988;1254;61145;-76
2023/10/18 01:35:15;;;;;;;21.20;11.60;;;;;;;2.22;100.00;101492.35;105890;1254;60546;-75
2023/10/18 01:37:47;;;;;;;25.10;12.80;;;;;;;2.19;100.00;101489.29;105808;1252;73690;-76
2023/10/18 01:42:57;;;;;;;19.40;11.90;;;;;;;2.15;100.00;101489.15;105791;1254;71308;-76
2023/10/18 01:45:36;;;;;;;18.00;12.70;;;;;;;2.11;100.00;101490.55;105947;1256;61022;-75
2023/10/18 01:48:09;;;;;;;21.20;12.80;;;;;;;2.07;100.00;101488.17;105689;1254;60899;-75
2023/10/18 01:50:39;;;;;;;20.50;12.90;;;;;;;2.05;100.00;101492.70;105757;1254;72635;-75
2023/10/18 01:53:15;;;;;;;18.70;11.60;;;;;;;2.02;100.00;101494.11;105849;1257;63061;-75
2023/10/18 01:55:53;;;;;;;18.20;12.70;;;;;;;1.99;100.00;101493.98;105800;1256;72783;-74
2023/10/18 01:58:26;;;;;;;17.90;12.20;;;;;;;1.95;100.00;101490.58;105834;1256;60537;-75
2023/10/18 02:00:55;;;;;;;18.50;13.00;;;;;;;1.93;100.00;101492.48;105933;1254;61129;-76
2023/10/18 02:03:23;;;;;;;17.60;13.70;;;;;;;1.91;100.00;101494.05;105841;1252;75128;-76
2023/10/18 02:05:50;;;;;;;20.60;12.90;;;;;;;1.90;100.00;101493.05;105883;1256;63849;-76
2023/10/18 02:08:17;;;;;;;24.10;13.20;;;;;;;1.89;100.00;101497.70;105918;1254;72579;-77
2023/10/18 02:10:49;;;;;;;17.50;12.60;;;;;;;1.87;100.00;101499.44;105920;1256;61162;-76
2023/10/18 02:13:18;;;;;;;20.50;13.00;;;;;;;1.85;100.00;101493.44;105759;1257;60448;-78
2023/10/18 02:15:45;;;;;;;21.00;14.60;;;;;;;1.81;100.00;101492.27;105884;1253;72635;-78
2023/10/18 02:18:14;;;;;;;20.30;14.20;;;;;;;1.79;100.00;101499.33;105750;1256;62537;-78
2023/10/18 02:20:50;;;;;;;21.80;13.90;;;;;;;1.80;100.00;101502.61;105717;1257;71151;-76
2023/10/18 02:23:17;;;;;;;23.00;13.70;;;;;;;1.79;100.00;101502.77;106001;1256;61167;-77
2023/10/18 02:25:45;;;;;;;22.70;14.80;;;;;;;1.79;100.00;101503.98;105782;1256;60456;-77
2023/10/18 02:28:27;;;;;;;20.20;13.80;;;;;;;1.79;100.00;101502.28;105829;1255;73809;-77
2023/10/18 02:33:44;;;;;;;22.00;15.00;;;;;;;1.78;100.00;101502.11;105780;1254;71659;-76
2023/10/18 02:36:11;;;;;;;23.80;14.80;;;;;;;1.76;100.00;101500.06;105797;1256;60412;-75
2023/10/18 02:38:38;;;;;;;25.50;17.70;;;;;;;1.75;100.00;101501.46;105825;1255;60488;-77
2023/10/18 02:41:15;;;;;;;27.10;16.30;;;;;;;1.74;100.00;101504.05;105880;1256;73777;-75
2023/10/18 02:43:52;;;;;;;27.70;17.20;;;;;;;1.73;100.00;101503.02;105799;1256;63977;-76
2023/10/18 02:46:23;;;;;;;25.50;16.90;;;;;;;1.72;100.00;101505.45;105933;1254;72714;-75
2023/10/18 02:48:52;;;;;;;26.40;17.10;;;;;;;1.70;100.00;101504.95;105992;1253;60559;-76
2023/10/18 02:51:22;;;;;;;28.60;16.90;;;;;;;1.69;100.00;101503.40;105770;1259;60553;-73
2023/10/18 02:56:52;;;;;;;20.80;14.80;;;;;;;1.65;100.00;101501.36;105809;1257;63730;-75
2023/10/18 02:59:24;;;;;;;26.80;16.40;;;;;;;1.63;100.00;101501.04;105821;1256;72519;-74
2023/10/18 03:01:55;;;;;;;25.60;15.10;;;;;;;1.60;100.00;101504.17;105817;1254;60923;-74
2023/10/18 03:04:26;;;;;;;26.40;17.10;;;;;;;1.58;100.00;101503.84;105826;1252;60351;-76
2023/10/18 03:06:53;;;;;;;24.50;15.20;;;;;;;1.57;100.00;101504.55;105953;1257;73871;-77
2023/10/18 03:12:00;;;;;;;19.70;15.40;;;;;;;1.54;100.00;101501.11;105896;1257;72603;-75
2023/10/18 03:14:39;;;;;;;23.60;15.30;;;;;;;1.53;100.00;101500.77;105729;1257;61680;-76
2023/10/18 03:19:50;;;;;;;26.00;14.70;;;;;;;1.51;100.00;101497.70;105666;1253;73801;-74
2023/10/18 03:22:21;;;;;;;23.30;15.80;;;;;;;1.49;100.00;101496.17;105660;1254;63947;-77
2023/10/18 03:24:58;;;;;;;25.60;16.50;;;;;;;1.47;100.00;101494.46;105665;1256;72528;-75
2023/10/18 03:27:33;;;;;;;27.20;17.40;;;;;;;1.45;100.00;101495.16;105737;1256;61199;-76
2023/10/18 03:30:17;;;;;;;27.60;15.60;;;;;;;1.43;100.00;101485.53;105676;1254;60488;-76
2023/10/18 03:32:49;;;;;;;23.70;16.80;;;;;;;1.41;100.00;101489.17;105877;1256;73892;-76
2023/10/18 03:35:22;;;;;;;26.80;15.90;;;;;;;1.39;100.00;101487.29;105743;1261;62726;-76
2023/10/18 03:37:49;;;;;;;22.60;15.80;;;;;;;1.35;100.00;101488.86;105667;1257;72732;-78
2023/10/18 03:40:22;;;;;;;21.40;14.60;;;;;;;1.32;100.00;101488.20;105949;1257;61230;-75
2023/10/18 03:42:53;;;;;;;28.30;16.40;;;;;;;1.28;100.00;101484.97;105823;1256;60354;-76
2023/10/18 03:45:27;;;;;;;23.30;16.10;;;;;;;1.23;100.00;101489.14;105817;1256;73818;-76
2023/10/18 03:47:58;;;;;;;26.00;16.40;;;;;;;1.20;100.00;101489.66;106021;1256;63958;-73
2023/10/18 03:50:35;;;;;;;37.80;24.20;;;;;;;1.16;100.00;101487.98;105823;1256;72658;-75
2023/10/18 03:53:02;;;;;;;83.30;59.30;;;;;;;1.11;100.00;101493.00;105890;1267;61187;-74
2023/10/18 03:55:39;;;;;;;58.80;44.50;;;;;;;1.05;100.00;101494.77;105984;1255;60460;-76
2023/10/18 03:58:06;;;;;;;50.50;36.20;;;;;;;1.01;100.00;101495.30;105914;1257;72742;-77
2023/10/18 04:00:46;;;;;;;68.30;45.00;;;;;;;0.96;100.00;101496.71;105953;1256;63931;-76
2023/10/18 04:05:45;;;;;;;72.80;51.70;;;;;;;0.93;100.00;101504.66;102838;1288;601026;-77
2023/10/18 04:08:14;;;;;;;75.20;51.90;;;;;;;0.88;100.00;101502.98;104924;1269;61100;-74
2023/10/18 04:10:42;;;;;;;79.80;54.20;;;;;;;0.82;100.00;101500.42;104971;1266;59322;-77
2023/10/18 04:13:14;;;;;;;76.30;52.30;;;;;;;0.78;100.00;101503.52;104972;1264;72251;-76
2023/10/18 04:15:46;;;;;;;76.00;49.00;;;;;;;0.77;100.00;101504.23;104933;1270;63635;-75
2023/10/18 04:18:25;;;;;;;70.10;46.40;;;;;;;0.79;100.00;101503.54;104750;1263;206335;-77
2023/10/18 04:20:59;;;;;;;71.40;43.30;;;;;;;0.81;100.00;101498.70;104985;1263;61844;-77
2023/10/18 04:23:34;;;;;;;70.80;44.30;;;;;;;0.82;100.00;101499.20;104960;1263;60134;-78
2023/10/18 04:26:18;;;;;;;71.20;44.30;;;;;;;0.79;100.00;101508.17;105653;1254;71503;-75
2023/10/18 04:28:48;;;;;;;74.00;43.10;;;;;;;0.79;100.00;101512.98;105494;1253;62446;-77
2023/10/18 04:31:21;;;;;;;60.00;40.50;;;;;;;0.82;100.00;101510.91;105692;1259;72791;-76
2023/10/18 04:33:52;;;;;;;66.30;43.30;;;;;;;0.85;100.00;101514.52;105643;1256;59769;-76
2023/10/18 04:36:21;;;;;;;74.50;46.80;;;;;;;0.89;100.00;101513.46;105788;1258;59618;-75
2023/10/18 04:38:49;;;;;;;86.10;49.70;;;;;;;0.92;100.00;101513.09;105761;1253;73249;-75
2023/10/18 04:43:52;;;;;;;75.90;48.00;;;;;;;0.99;100.00;101511.85;105776;1253;72693;-75
2023/10/18 04:46:26;;;;;;;70.10;45.50;;;;;;;1.01;100.00;101513.55;105774;1259;60847;-75
2023/10/18 04:51:26;;;;;;;90.50;55.60;;;;;;;1.06;100.00;101514.75;106211;1254;72251;-75
2023/10/18 04:54:01;;;;;;;70.00;46.00;;;;;;;1.10;100.00;101518.15;107041;1253;65984;-74
2023/10/18 04:56:32;;;;;;;74.30;49.00;;;;;;;1.15;100.00;101518.12;106982;1253;71631;-74
2023/10/18 04:58:59;;;;;;;67.30;49.20;;;;;;;1.21;100.00;101523.08;107281;1257;60812;-74
2023/10/18 05:01:36;;;;;;;69.60;47.40;;;;;;;1.26;100.00;101522.52;106949;1253;59706;-75
2023/10/18 05:04:20;;;;;;;79.40;48.30;;;;;;;1.33;100.00;101526.78;106423;1253;72232;-75
2023/10/18 05:06:55;;;;;;;75.60;47.80;;;;;;;1.39;100.00;101525.52;106037;1253;62727;-74
2023/10/18 05:09:30;;;;;;;73.10;46.20;;;;;;;1.44;100.00;101526.02;106146;1254;72710;-76
2023/10/18 05:11:59;;;;;;;63.70;41.40;;;;;;;1.52;100.00;101523.89;106238;1254;59663;-75
2023/10/18 05:14:40;;;;;;;68.60;40.40;;;;;;;1.60;100.00;101526.75;106166;1259;59598;-73
2023/10/18 05:17:23;;;;;;;58.40;36.40;;;;;;;1.70;100.00;101526.31;106227;1254;74487;-75
2023/10/18 05:19:55;;;;;;;53.40;33.00;;;;;;;1.79;100.00;101526.23;106080;1256;63069;-75
2023/10/18 05:22:23;;;;;;;45.90;29.50;;;;;;;1.88;100.00;101529.61;106029;1259;72483;-74
2023/10/18 05:25:15;;;;;;;34.80;25.40;;;;;;;1.99;100.00;101531.21;105925;1254;60131;-77
2023/10/18 05:27:47;;;;;;;32.70;22.00;;;;;;;2.17;100.00;101533.29;105820;1259;59499;-78
2023/10/18 05:30:15;;;;;;;30.80;19.90;;;;;;;2.40;100.00;101537.36;105756;1259;72256;-74
2023/10/18 05:32:49;;;;;;;26.70;17.30;;;;;;;2.69;100.00;101536.48;105927;1253;62421;-75
2023/10/18 05:35:35;;;;;;;23.70;17.00;;;;;;;3.20;100.00;101533.20;105729;1254;71320;-75
2023/10/18 05:38:06;;;;;;;25.70;15.40;;;;;;;4.13;100.00;101535.96;105673;1258;59750;-77
2023/10/18 05:45:57;;;;;;;12.40;10.20;;;;;;;7.50;100.00;101535.96;105709;1254;62460;-79
2023/10/18 05:48:25;;;;;;;12.20;10.90;;;;;;;8.58;100.00;101539.94;105700;1254;71384;-78
2023/10/18 05:51:02;;;;;;;15.30;11.90;;;;;;;9.58;100.00;101542.34;105663;1259;60996;-76
2023/10/18 05:53:29;;;;;;;15.20;10.00;;;;;;;10.57;100.00;101547.05;105764;1253;60155;-75
2023/10/18 05:55:57;;;;;;;11.50;9.30;;;;;;;11.45;100.00;101541.85;105975;1251;71802;-77
2023/10/18 05:58:28;;;;;;;9.80;8.80;;;;;;;12.27;100.00;101544.93;105819;1253;62718;-75
2023/10/18 06:00:56;;;;;;;14.30;8.80;;;;;;;13.06;100.00;101540.52;105844;1253;71378;-75
2023/10/18 06:03:27;;;;;;;12.60;8.60;;;;;;;13.78;97.96;101537.33;105906;1251;59705;-77
2023/10/18 06:05:58;;;;;;;12.50;10.50;;;;;;;14.44;86.32;101538.81;105875;1251;59995;-75
2023/10/18 06:08:26;;;;;;;19.70;16.80;;;;;;;15.05;75.92;101531.52;105999;1251;73151;-75
2023/10/18 06:11:00;;;;;;;8.70;7.90;;;;;;;15.62;67.51;101531.83;105783;1256;62437;-78
2023/10/18 06:13:27;;;;;;;9.30;7.50;;;;;;;16.17;61.30;101527.98;106012;1256;71876;-78
2023/10/18 06:16:02;;;;;;;10.10;7.10;;;;;;;16.60;57.44;101527.41;105872;1256;59736;-78
2023/10/18 06:18:37;;;;;;;7.40;6.70;;;;;;;16.97;53.95;101523.05;105803;1251;60341;-77
2023/10/18 06:21:12;;;;;;;7.30;6.60;;;;;;;16.93;51.26;101522.29;105889;1256;71576;-75
2023/10/18 06:23:39;;;;;;;11.00;6.80;;;;;;;16.56;50.42;101518.40;105791;1256;63069;-75
2023/10/18 06:26:29;;;;;;;9.30;6.80;;;;;;;16.04;50.76;101516.67;105749;1256;72698;-77
2023/10/18 06:29:11;;;;;;;10.40;6.60;;;;;;;15.39;52.07;101514.84;105854;1252;59829;-76
2023/10/18 06:31:43;;;;;;;15.60;12.50;;;;;;;14.74;53.24;101511.83;105733;1256;59629;-77
2023/10/18 06:34:17;;;;;;;12.40;10.70;;;;;;;14.16;55.21;101511.30;105835;1251;73082;-73
2023/10/18 06:36:47;;;;;;;8.40;7.30;;;;;;;13.62;57.33;101509.25;105924;1251;61883;-74
2023/10/18 06:39:34;;;;;;;10.10;7.90;;;;;;;13.15;60.18;101503.66;105868;1256;72652;-76
2023/10/18 06:42:06;;;;;;;11.60;7.60;;;;;;;12.69;63.65;101502.57;105789;1256;59728;-75
2023/10/18 06:44:33;;;;;;;11.60;7.90;;;;;;;12.29;67.11;101498.21;105810;1256;59628;-75
2023/10/18 06:47:06;;;;;;;8.70;6.80;;;;;;;11.96;70.45;101500.42;105788;1251;74523;-75
2023/10/18 06:49:36;;;;;;;13.30;7.40;;;;;;;11.68;73.33;101501.14;105959;1251;62885;-77
2023/10/18 06:52:04;;;;;;;8.40;6.70;;;;;;;11.44;75.52;101498.14;105813;1253;73413;-78
2023/10/18 06:54:31;;;;;;;8.40;7.60;;;;;;;11.22;78.20;101498.67;105826;1251;59926;-76
2023/10/18 06:57:09;;;;;;;11.20;8.60;;;;;;;11.03;80.53;101497.66;105903;1256;59708;-76
2023/10/18 06:59:37;;;;;;;9.60;7.80;;;;;;;10.85;83.62;101498.00;105738;1254;73811;-74
2023/10/18 07:02:05;;;;;;;9.10;5.60;;;;;;;10.70;86.02;101500.29;105859;1253;63886;-74
2023/10/18 07:04:37;;;;;;;7.20;5.80;;;;;;;10.57;88.48;101499.50;105974;1251;71525;-78
2023/10/18 07:07:11;;;;;;;6.40;5.80;;;;;;;10.43;89.92;101500.64;105830;1256;60192;-78
2023/10/18 07:09:42;;;;;;;7.10;6.10;;;;;;;10.32;91.02;101495.88;105880;1256;59724;-80
2023/10/18 07:12:13;;;;;;;8.00;6.20;;;;;;;10.23;92.00;101492.60;105883;1256;72042;-75
2023/10/18 07:14:41;;;;;;;8.30;6.50;;;;;;;10.14;93.33;101491.92;105931;1251;63603;-78
2023/10/18 07:17:14;;;;;;;9.30;5.60;;;;;;;10.09;94.25;101491.98;105898;1253;70682;-77
2023/10/18 07:19:55;;;;;;;8.50;5.90;;;;;;;10.03;94.07;101488.77;105905;1252;59728;-77
2023/10/18 07:22:44;;;;;;;9.90;5.90;;;;;;;9.98;93.18;101484.27;105845;1251;59998;-76
2023/10/18 07:25:27;;;;;;;7.90;5.70;;;;;;;9.93;93.23;101480.77;105869;1256;72226;-77
2023/10/18 07:27:57;;;;;;;10.40;5.60;;;;;;;9.91;93.90;101477.38;106022;1251;63743;-78
2023/10/18 07:30:37;;;;;;;6.80;3.80;;;;;;;9.90;94.35;101472.05;105715;1253;71265;-78
2023/10/18 07:33:12;;;;;;;5.50;3.10;;;;;;;9.90;91.41;101472.38;105874;1256;60046;-77
2023/10/18 07:35:44;;;;;;;5.80;3.10;;;;;;;9.91;89.38;101474.73;106004;1256;59623;-77
2023/10/18 07:38:11;;;;;;;5.10;2.60;;;;;;;10.03;88.68;101475.47;105986;1253;73330;-75
2023/10/18 07:40:42;;;;;;;4.40;2.70;;;;;;;10.45;87.49;101473.24;105844;1251;63817;-77
2023/10/18 07:43:12;;;;;;;3.80;3.00;;;;;;;11.28;81.78;101468.46;105896;1256;72837;-78
2023/10/18 07:45:40;;;;;;;3.90;2.60;;;;;;;12.33;73.39;101470.27;105997;1253;59620;-75
2023/10/18 07:48:11;;;;;;;5.40;3.40;;;;;;;13.38;66.33;101477.95;105969;1254;60492;-77
2023/10/18 07:53:06;;;;;;;2.90;1.80;;;;;;;15.45;51.35;101480.23;105772;1251;62353;-79
2023/10/18 07:55:37;;;;;;;2.90;2.10;;;;;;;16.36;47.09;101480.93;106201;1253;72638;-74
2023/10/18 07:58:17;;;;;;;4.50;2.60;;;;;;;17.23;44.60;101474.64;106079;1253;59674;-78
2023/10/18 08:03:32;;;;;;;3.00;2.30;;;;;;;18.90;39.18;101471.45;105736;1252;71671;-76
2023/10/18 08:06:06;;;;;;;2.70;2.40;;;;;;;19.56;37.88;101471.36;105968;1251;63765;-78
2023/10/18 08:08:36;;;;;;;4.10;3.00;;;;;;;20.16;37.12;101473.47;105947;1253;72877;-78
2023/10/18 08:11:06;;;;;;;8.90;5.90;;;;;;;20.63;35.86;101474.93;105866;1256;59646;-74
2023/10/18 08:13:39;;;;;;;5.70;4.90;;;;;;;20.96;35.36;101467.34;105759;1253;60189;-76
2023/10/18 08:16:10;;;;;;;3.50;2.60;;;;;;;21.33;34.28;101463.98;105765;1253;71694;-74
2023/10/18 08:18:43;;;;;;;3.20;2.50;;;;;;;21.73;33.77;101466.87;105833;1256;62692;-75
2023/10/18 08:21:25;;;;;;;2.30;2.10;;;;;;;22.17;32.78;101464.45;105861;1254;71910;-75
2023/10/18 08:24:06;;;;;;;5.90;2.60;;;;;;;22.63;31.59;101465.41;105947;1256;60515;-77
2023/10/18 08:26:51;;;;;;;4.70;2.80;;;;;;;23.07;31.02;101459.49;105737;1251;60416;-76
2023/10/18 08:29:18;;;;;;;3.80;2.40;;;;;;;23.55;29.98;101455.15;105824;1254;73257;-75
2023/10/18 08:31:55;;;;;;;3.10;2.80;;;;;;;23.86;29.51;101455.73;105752;1254;63681;-77
2023/10/18 08:34:23;;;;;;;4.50;2.80;;;;;;;24.20;29.49;101454.54;105978;1256;73175;-73
2023/10/18 08:37:01;;;;;;;3.20;2.90;;;;;;;24.57;28.78;101456.94;105793;1256;60486;-73
2023/10/18 08:39:29;;;;;;;4.70;3.70;;;;;;;24.77;28.17;101457.31;105950;1256;60435;-76
2023/10/18 08:42:05;;;;;;;5.80;2.90;;;;;;;24.80;27.75;101452.58;105731;1256;73949;-79
2023/10/18 08:44:35;;;;;;;3.70;3.40;;;;;;;24.87;27.00;101451.11;105850;1256;63976;-76
2023/10/18 08:47:12;;;;;;;4.80;3.40;;;;;;;24.88;27.44;101449.06;105777;1252;72234;-75
2023/10/18 08:49:50;;;;;;;3.60;2.40;;;;;;;25.00;27.42;101441.56;105744;1253;60514;-74
2023/10/18 08:52:23;;;;;;;4.40;2.40;;;;;;;25.14;27.26;101440.27;105775;1252;60409;-74
2023/10/18 08:54:52;;;;;;;2.60;2.40;;;;;;;25.27;26.43;101439.45;105771;1253;72448;-73
2023/10/18 08:57:36;;;;;;;1.50;1.30;;;;;;;25.40;25.69;101440.11;105801;1253;64721;-75
2023/10/18 09:03:07;;;;;;;1.80;1.50;;;;;;;25.72;24.62;101434.48;105625;1252;60550;-76
2023/10/18 09:05:38;;;;;;;1.60;1.40;;;;;;;25.81;24.47;101430.70;105804;1253;60490;-78
2023/10/18 09:08:07;;;;;;;1.30;1.00;;;;;;;25.97;23.96;101431.73;105659;1253;72224;-75
2023/10/18 09:16:34;;;;;;;2.30;1.40;;;;;;;26.42;23.90;101419.39;105748;1258;60540;-78
2023/10/18 09:18:37;;;;;;;2.40;1.70;;;;;;;26.72;23.41;101415.20;105642;1257;60419;-77
2023/10/18 09:23:40;;;;;;;4.90;1.70;;;;;;;26.86;22.37;101404.73;105619;1254;65481;-77
2023/10/18 09:26:14;;;;;;;1.90;1.40;;;;;;;26.97;22.42;101402.80;105455;1260;72706;-77
2023/10/18 09:28:42;;;;;;;4.00;2.20;;;;;;;27.08;22.24;101404.31;105799;1253;62843;-78
2023/10/18 09:31:18;;;;;;;2.60;2.10;;;;;;;27.13;21.96;101395.69;105747;1253;60444;-76
2023/10/18 09:33:51;;;;;;;2.30;1.90;;;;;;;27.19;21.97;101395.14;105672;1253;73870;-76
2023/10/18 09:36:20;;;;;;;2.30;2.10;;;;;;;27.30;21.74;101391.85;105684;1258;62273;-76
2023/10/18 09:38:48;;;;;;;3.00;2.20;;;;;;;27.33;22.03;101389.56;105703;1256;72716;-78
2023/10/18 09:41:16;;;;;;;3.40;2.30;;;;;;;27.27;21.72;101389.94;105818;1259;60576;-76
2023/10/18 09:43:44;;;;;;;2.20;2.00;;;;;;;27.35;21.71;101386.45;105779;1253;60538;-74
2023/10/18 09:46:13;;;;;;;4.20;1.40;;;;;;;27.49;21.66;101377.20;105820;1253;72854;-77
2023/10/18 09:48:43;;;;;;;2.50;1.50;;;;;;;27.56;21.52;101378.85;105753;1256;63917;-77
2023/10/18 09:51:15;;;;;;;5.20;2.50;;;;;;;27.49;21.28;101377.39;105654;1253;75047;-76
2023/10/18 09:53:44;;;;;;;4.80;2.50;;;;;;;27.52;21.47;101369.50;105776;1257;60457;-74
2023/10/18 09:56:13;;;;;;;4.00;2.60;;;;;;;27.61;21.95;101365.73;105668;1254;60537;-75
2023/10/18 09:58:44;;;;;;;4.10;2.60;;;;;;;27.61;21.97;101361.20;105797;1253;73306;-79
2023/10/18 10:01:30;;;;;;;2.70;2.50;;;;;;;27.43;22.28;101359.46;105679;1259;63587;-76
2023/10/18 10:03:58;;;;;;;3.00;2.70;;;;;;;27.01;22.57;101359.78;105781;1253;71569;-77
2023/10/18 10:06:26;;;;;;;4.10;3.00;;;;;;;26.71;22.26;101353.80;105688;1253;61132;-76
2023/10/18 10:09:01;;;;;;;2.80;2.30;;;;;;;26.44;22.30;101349.48;105711;1252;60533;-77
2023/10/18 10:11:38;;;;;;;2.60;1.90;;;;;;;26.42;22.44;101348.75;105783;1252;72528;-75
2023/10/18 10:14:07;;;;;;;6.70;2.30;;;;;;;26.46;22.50;101343.08;105703;1257;63746;-74
2023/10/18 10:16:35;;;;;;;4.60;1.90;;;;;;;26.27;22.62;101341.48;105677;1256;74910;-75
2023/10/18 10:19:05;;;;;;;3.80;2.60;;;;;;;25.97;22.81;101344.09;105677;1253;60502;-75
2023/10/18 10:21:33;;;;;;;6.10;5.50;;;;;;;25.48;23.44;101344.72;105743;1257;60389;-75
2023/10/18 10:24:29;;;;;;;8.60;6.10;;;;;;;25.01;23.82;101333.95;105709;1257;75605;-77
2023/10/18 10:26:50;;;;;;;2.60;2.20;;;;;;;24.40;24.26;101331.76;105783;1253;62816;-77
2023/10/18 10:31:59;;;;;;;2.80;1.70;;;;;;;23.59;24.99;101320.33;105671;1253;60546;-77
2023/10/18 10:34:28;;;;;;;2.70;1.70;;;;;;;23.30;25.41;101314.77;105884;1253;60611;-76
2023/10/18 10:37:06;;;;;;;3.80;2.30;;;;;;;23.08;25.97;101311.30;105802;1252;73870;-75
2023/10/18 10:39:36;;;;;;;3.10;2.10;;;;;;;22.92;26.14;101308.63;105833;1253;64107;-76
2023/10/18 10:42:09;;;;;;;2.60;2.20;;;;;;;22.86;26.16;101309.83;105686;1259;73267;-75
2023/10/18 10:45:11;;;;;;;2.60;1.80;;;;;;;22.68;26.20;101303.70;105791;1259;60487;-74
2023/10/18 10:47:45;;;;;;;2.70;1.80;;;;;;;22.40;26.21;101304.91;105334;1257;60349;-74
2023/10/18 10:50:45;;;;;;;3.70;2.90;;;;;;;22.08;26.53;101302.20;105273;1260;73639;-73
2023/10/18 10:53:18;;;;;;;2.60;2.20;;;;;;;21.53;26.70;101300.34;105218;1258;62443;-75
2023/10/18 10:55:48;;;;;;;;;;;;;;;21.00;27.42;101298.27;105100;1258;72709;-76
2023/10/18 10:58:18;;;;;;;3.40;2.40;;;;;;;20.59;28.56;101293.67;105278;1264;60656;-74
2023/10/18 11:01:05;;;;;;;3.00;1.80;;;;;;;20.12;29.11;101288.66;105341;1256;60618;-73
2023/10/18 11:03:52;;;;;;;3.30;2.30;;;;;;;19.74;29.78;101288.45;105407;1262;71419;-74
2023/10/18 11:06:24;;;;;;;4.00;2.00;;;;;;;19.28;30.20;101286.13;105497;1259;62299;-76
2023/10/18 11:08:52;;;;;;;4.20;2.10;;;;;;;18.81;30.75;101285.64;105394;1260;71946;-78
2023/10/18 11:11:26;;;;;;;4.60;1.70;;;;;;;18.31;31.08;101285.34;105305;1258;60446;-77
2023/10/18 11:13:54;;;;;;;3.60;2.40;;;;;;;17.87;31.65;101280.59;105347;1261;60432;-76
2023/10/18 11:16:21;;;;;;;3.30;1.80;;;;;;;17.59;31.96;101275.73;105266;1259;73590;-74
2023/10/18 11:18:49;;;;;;;3.90;1.60;;;;;;;17.34;32.44;101274.33;105275;1260;64444;-75
2023/10/18 11:21:28;;;;;;;2.80;2.10;;;;;;;17.09;33.24;101267.20;105309;1259;75129;-74
2023/10/18 11:24:11;;;;;;;2.50;1.90;;;;;;;16.76;33.49;101267.60;105505;1254;60547;-76
2023/10/18 11:26:41;;;;;;;2.20;2.00;;;;;;;16.49;33.72;101264.33;105761;1257;60496;-74
2023/10/18 11:29:08;;;;;;;7.40;3.20;;;;;;;16.20;34.08;101258.86;105741;1258;74507;-76
2023/10/18 11:31:38;;;;;;;3.30;2.10;;;;;;;15.94;34.52;101255.84;105769;1259;65238;-77
2023/10/18 11:34:06;;;;;;;7.40;2.50;;;;;;;15.74;34.95;101257.79;105844;1259;74752;-76
2023/10/18 11:36:35;;;;;;;2.70;2.10;;;;;;;15.60;35.44;101257.55;105703;1257;60461;-75
2023/10/18 11:41:42;;;;;;;3.40;2.40;;;;;;;15.29;36.04;101251.08;105724;1253;73901;-75
2023/10/18 11:44:17;;;;;;;10.70;2.90;;;;;;;15.17;36.18;101246.61;105760;1254;64924;-75
2023/10/18 11:46:49;;;;;;;2.70;2.50;;;;;;;15.05;36.65;101240.20;105743;1252;73227;-78
2023/10/18 11:49:21;;;;;;;3.10;2.20;;;;;;;14.88;36.84;101238.21;105796;1253;60464;-73
2023/10/18 11:51:50;;;;;;;2.70;1.80;;;;;;;14.72;37.31;101229.79;105676;1258;60743;-75
2023/10/18 11:54:31;;;;;;;2.80;2.40;;;;;;;14.56;37.10;101232.93;105748;1254;72627;-76
2023/10/18 11:57:09;;;;;;;3.70;2.20;;;;;;;14.43;36.91;101225.37;105899;1259;63888;-75
2023/10/18 11:59:53;;;;;;;4.40;2.70;;;;;;;14.31;37.85;101222.81;105789;1253;73068;-75
2023/10/18 12:02:21;;;;;;;4.00;3.20;;;;;;;14.21;38.10;101223.83;105739;1253;60502;-75
2023/10/18 12:04:49;;;;;;;3.60;3.10;;;;;;;14.13;38.30;101221.20;105736;1254;60563;-76
2023/10/18 12:07:16;;;;;;;5.90;3.60;;;;;;;14.05;37.71;101216.61;105638;1261;74834;-76
2023/10/18 12:09:45;;;;;;;4.10;3.60;;;;;;;13.98;38.43;101222.30;105777;1253;63642;-76
2023/10/18 12:12:13;;;;;;;7.30;3.40;;;;;;;13.92;38.47;101221.85;105745;1252;72701;-76
2023/10/18 12:14:41;;;;;;;4.10;3.70;;;;;;;13.88;38.39;101218.93;105681;1253;60619;-78
2023/10/18 12:17:10;;;;;;;4.60;3.60;;;;;;;13.85;38.57;101217.35;105774;1254;60486;-76
2023/10/18 12:19:37;;;;;;;7.30;5.20;;;;;;;13.82;38.85;101215.75;105686;1257;74403;-75
2023/10/18 12:22:07;;;;;;;6.20;5.20;;;;;;;13.79;39.19;101217.08;105751;1259;63659;-75
2023/10/18 12:24:35;;;;;;;5.20;4.70;;;;;;;13.72;38.81;101213.98;105828;1258;73296;-77